createdAt,value
2022-10-11T00:00:58.419Z,34
2022-10-11T00:02:58.426Z,31
2022-10-11T00:05:58.384Z,36
2022-10-11T00:07:58.428Z,38
2022-10-11T00:10:58.365Z,34
2022-10-11T00:12:58.379Z,41
2022-10-11T00:14:58.400Z,37
2022-10-11T00:18:01.073Z,39
2022-10-11T00:19:58.434Z,43
2022-10-11T00:22:58.395Z,43
2022-10-11T00:25:58.380Z,48
2022-10-11T00:27:58.391Z,42
2022-10-11T00:30:58.393Z,51
2022-10-11T00:33:58.387Z,46
2022-10-11T00:35:58.413Z,46
2022-10-11T00:38:58.395Z,43
2022-10-11T00:41:58.365Z,45
2022-10-11T00:43:58.395Z,45
2022-10-11T00:45:58.383Z,43
2022-10-11T00:47:58.386Z,47
2022-10-11T00:49:58.612Z,52
2022-10-11T00:52:58.377Z,54
2022-10-11T00:54:58.403Z,52
2022-10-11T00:57:58.366Z,55
2022-10-11T00:59:58.374Z,54
2022-10-11T01:02:58.395Z,53
2022-10-11T01:05:58.370Z,53
2022-10-11T01:08:58.382Z,59
2022-10-11T01:10:58.384Z,45
2022-10-11T01:13:58.391Z,62
2022-10-11T01:15:58.423Z,67
2022-10-11T01:18:58.370Z,60
2022-10-11T01:21:58.446Z,66
2022-10-11T01:24:58.371Z,56
2022-10-11T01:27:58.375Z,77
2022-10-11T01:29:58.380Z,71
2022-10-11T01:32:58.378Z,79
2022-10-11T01:34:58.406Z,76
2022-10-11T01:37:58.376Z,75
2022-10-11T01:39:58.393Z,85
2022-10-11T01:42:58.383Z,83
2022-10-11T01:45:58.422Z,84
2022-10-11T01:47:58.391Z,87
2022-10-11T01:50:58.372Z,80
2022-10-11T01:52:58.389Z,74
2022-10-11T01:55:58.434Z,80
2022-10-11T01:58:58.397Z,74
2022-10-11T02:01:58.463Z,76
2022-10-11T02:03:58.386Z,77
2022-10-11T02:05:58.420Z,71
2022-10-11T02:07:58.415Z,74
2022-10-11T02:10:58.410Z,73
2022-10-11T02:12:58.447Z,68
2022-10-11T02:15:58.423Z,76
2022-10-11T02:18:58.417Z,63
2022-10-11T02:20:58.414Z,72
2022-10-11T02:22:58.430Z,75
2022-10-11T02:25:58.444Z,77
2022-10-11T02:28:58.399Z,80
2022-10-11T02:30:58.423Z,78
2022-10-11T02:33:58.409Z,72
2022-10-11T02:35:58.413Z,74
2022-10-11T02:37:58.446Z,73
2022-10-11T02:39:58.538Z,71
2022-10-11T02:41:58.645Z,79
2022-10-11T02:44:58.439Z,65
2022-10-11T02:47:58.408Z,73
2022-10-11T02:49:58.459Z,67
2022-10-11T02:52:58.413Z,65
2022-10-11T02:54:58.437Z,61
2022-10-11T02:57:58.461Z,65
2022-10-11T03:00:58.410Z,56
2022-10-11T03:03:58.451Z,61
2022-10-11T03:06:58.433Z,63
2022-10-11T03:08:58.458Z,59
2022-10-11T03:10:58.412Z,61
2022-10-11T03:12:58.448Z,66
2022-10-11T03:16:03.123Z,66
2022-10-11T03:18:58.382Z,71
2022-10-11T03:20:58.615Z,65
2022-10-11T03:23:58.424Z,73
2022-10-11T03:25:58.407Z,76
2022-10-11T03:28:58.467Z,62
2022-10-11T03:31:58.406Z,73
2022-10-11T03:33:58.451Z,69
2022-10-11T03:36:58.415Z,66
2022-10-11T03:38:58.430Z,66
2022-10-11T03:41:58.463Z,64
2022-10-11T03:44:58.419Z,63
2022-10-11T03:47:58.421Z,59
2022-10-11T03:49:58.437Z,63
2022-10-11T03:52:58.416Z,64
2022-10-11T03:55:58.434Z,64
2022-10-11T03:57:59.100Z,55
2022-10-11T04:00:58.383Z,55
2022-10-11T04:02:58.413Z,64
2022-10-11T04:05:58.400Z,68
2022-10-11T04:07:58.434Z,53
2022-10-11T04:09:58.426Z,52
2022-10-11T04:11:58.445Z,45
2022-10-11T04:14:58.413Z,43
2022-10-11T04:17:00.322Z,50
2022-10-11T04:18:58.428Z,51
2022-10-11T04:21:58.467Z,56
2022-10-11T04:24:58.406Z,54
2022-10-11T04:26:58.435Z,61
2022-10-11T04:28:58.492Z,66
2022-10-11T04:31:58.444Z,64
2022-10-11T04:33:58.428Z,63
2022-10-11T04:36:58.430Z,72
2022-10-11T04:38:58.434Z,55
2022-10-11T04:41:58.423Z,66
2022-10-11T04:43:58.431Z,64
2022-10-11T04:45:58.426Z,59
2022-10-11T04:48:58.447Z,62
2022-10-11T04:51:58.434Z,50
2022-10-11T04:53:58.442Z,48
2022-10-11T04:55:58.436Z,56
2022-10-11T04:57:58.448Z,50
2022-10-11T04:59:58.515Z,49
2022-10-11T05:02:58.435Z,35
2022-10-11T05:04:58.455Z,41
2022-10-11T05:06:58.433Z,44
2022-10-11T05:09:58.441Z,40
2022-10-11T05:11:58.457Z,37
2022-10-11T05:14:58.450Z,31
2022-10-11T05:17:58.436Z,38
2022-10-11T05:20:58.440Z,30
2022-10-11T05:23:58.426Z,38
2022-10-11T05:27:02.401Z,33
2022-10-11T05:29:58.417Z,31
2022-10-11T05:32:58.440Z,32
2022-10-11T05:35:58.425Z,23
2022-10-11T05:38:58.430Z,24
2022-10-11T05:40:58.516Z,23
2022-10-11T05:43:58.412Z,23
2022-10-11T05:45:58.442Z,19
2022-10-11T05:47:58.413Z,23
2022-10-11T05:50:58.448Z,21
2022-10-11T05:52:58.436Z,19
2022-10-11T05:54:58.446Z,16
2022-10-11T05:57:58.436Z,13
2022-10-11T05:59:58.478Z,20
2022-10-11T06:02:58.441Z,16
2022-10-11T06:04:58.528Z,16
2022-10-11T06:07:58.419Z,17
2022-10-11T06:09:58.441Z,17
2022-10-11T06:12:58.430Z,14
2022-10-11T06:14:58.423Z,15
2022-10-11T06:17:58.434Z,20
2022-10-11T06:20:58.443Z,15
2022-10-11T06:24:01.478Z,16
2022-10-11T06:26:58.441Z,17
2022-10-11T06:29:58.465Z,18
2022-10-11T06:31:58.446Z,16
2022-10-11T06:33:58.453Z,15
2022-10-11T06:35:58.455Z,15
2022-10-11T06:38:58.472Z,12
2022-10-11T06:41:58.457Z,15
2022-10-11T06:44:58.435Z,10
2022-10-11T06:46:58.469Z,17
2022-10-11T06:48:58.450Z,15
2022-10-11T06:51:58.444Z,12
2022-10-11T06:53:58.439Z,12
2022-10-11T06:56:58.462Z,13
2022-10-11T06:58:58.491Z,12
2022-10-11T07:01:58.484Z,11
2022-10-11T07:03:58.467Z,13
2022-10-11T07:06:58.517Z,10
2022-10-11T07:09:58.473Z,12
2022-10-11T07:12:58.458Z,12
2022-10-11T07:14:58.442Z,14
2022-10-11T07:17:58.489Z,10
2022-10-11T07:20:58.466Z,11
2022-10-11T07:22:58.474Z,12
2022-10-11T07:24:58.491Z,17
2022-10-11T07:27:58.468Z,18
2022-10-11T07:29:58.476Z,12
2022-10-11T07:32:58.503Z,16
2022-10-11T07:35:58.459Z,15
2022-10-11T07:37:58.475Z,15
2022-10-11T07:39:58.460Z,13
2022-10-11T07:42:58.485Z,14
2022-10-11T07:44:58.466Z,17
2022-10-11T07:46:58.476Z,13
2022-10-11T07:49:58.468Z,10
2022-10-11T07:52:58.470Z,19
2022-10-11T07:55:58.461Z,11
2022-10-11T07:57:58.471Z,12
2022-10-11T08:00:58.562Z,15
2022-10-11T08:03:01.637Z,16
2022-10-11T08:05:58.471Z,21
2022-10-11T08:08:58.564Z,14
2022-10-11T08:11:58.466Z,13
2022-10-11T08:13:58.498Z,18
2022-10-11T08:16:58.481Z,15
2022-10-11T08:18:58.491Z,14
2022-10-11T08:21:58.500Z,15
2022-10-11T08:24:58.489Z,16
2022-10-11T08:27:58.498Z,14
2022-10-11T08:29:58.482Z,16
2022-10-11T08:32:58.500Z,13
2022-10-11T08:35:58.502Z,16
2022-10-11T08:38:58.474Z,16
2022-10-11T08:41:58.487Z,16
2022-10-11T08:43:58.471Z,17
2022-10-11T08:47:00.507Z,16
2022-10-11T08:49:58.473Z,14
2022-10-11T08:51:58.487Z,17
2022-10-11T08:53:59.270Z,14
2022-10-11T08:56:58.502Z,17
2022-10-11T08:58:58.481Z,15
2022-10-11T09:03:58.526Z,18
2022-10-11T09:07:01.335Z,19
2022-10-11T09:08:58.535Z,12
2022-10-11T09:11:58.489Z,14
2022-10-11T09:14:58.532Z,13
2022-10-11T09:17:59.556Z,16
2022-10-11T09:19:58.517Z,14
2022-10-11T09:22:58.492Z,29
2022-10-11T09:25:58.487Z,13
2022-10-11T09:28:02.615Z,11
2022-10-11T09:30:58.484Z,16
2022-10-11T09:32:58.510Z,13
2022-10-11T09:35:58.522Z,13
2022-10-11T09:39:00.154Z,11
2022-10-11T09:41:58.486Z,20
2022-10-11T09:43:58.509Z,15
2022-10-11T09:46:58.486Z,12
2022-10-11T09:49:58.525Z,12
2022-10-11T09:51:58.504Z,10
2022-10-11T09:54:58.497Z,11
2022-10-11T09:57:58.466Z,14
2022-10-11T09:59:58.506Z,12
2022-10-11T10:02:58.502Z,17
2022-10-11T10:04:58.490Z,19
2022-10-11T10:06:58.478Z,15
2022-10-11T10:09:58.475Z,14
2022-10-11T10:11:58.516Z,17
2022-10-11T10:14:58.479Z,13
2022-10-11T10:17:58.487Z,14
2022-10-11T10:19:58.498Z,17
2022-10-11T10:22:58.481Z,20
2022-10-11T10:25:58.489Z,15
2022-10-11T10:27:58.552Z,18
2022-10-11T10:29:58.519Z,15
2022-10-11T10:32:14.127Z,14
2022-10-11T10:34:58.484Z,13
2022-10-11T10:37:58.505Z,15
2022-10-11T10:39:58.535Z,14
2022-10-11T10:42:58.476Z,13
2022-10-11T10:44:58.536Z,13
2022-10-11T10:47:58.467Z,14
2022-10-11T10:49:58.492Z,17
2022-10-11T10:51:58.483Z,13
2022-10-11T10:54:58.527Z,12
2022-10-11T10:57:58.511Z,14
2022-10-11T11:00:58.508Z,14
2022-10-11T11:03:58.496Z,14
2022-10-11T11:05:58.524Z,16
2022-10-11T11:07:58.492Z,14
2022-10-11T11:10:58.520Z,14
2022-10-11T11:13:58.508Z,16
2022-10-11T11:16:58.498Z,13
2022-10-11T11:18:58.502Z,14
2022-10-11T11:21:58.560Z,15
2022-10-11T11:24:58.492Z,13
2022-10-11T11:26:58.556Z,17
2022-10-11T11:28:58.514Z,14
2022-10-11T11:31:58.517Z,15
2022-10-11T11:34:58.495Z,11
2022-10-11T11:36:58.600Z,15
2022-10-11T11:39:58.493Z,14
2022-10-11T11:41:58.509Z,14
2022-10-11T11:44:58.505Z,11
2022-10-11T11:46:58.546Z,14
2022-10-11T11:48:58.530Z,13
2022-10-11T11:51:58.546Z,13
2022-10-11T11:55:02.939Z,15
2022-10-11T11:58:00.223Z,11
2022-10-11T11:59:58.513Z,10
2022-10-11T12:02:58.519Z,16
2022-10-11T12:05:58.503Z,16
2022-10-11T12:08:58.503Z,12
2022-10-11T12:10:58.514Z,11
2022-10-11T12:12:58.538Z,11
2022-10-11T12:15:58.519Z,11
2022-10-11T12:17:58.560Z,11
2022-10-11T12:20:58.522Z,12
2022-10-11T12:22:58.585Z,9
2022-10-11T12:25:58.550Z,10
2022-10-11T12:28:58.538Z,11
2022-10-11T12:31:58.510Z,7
2022-10-11T12:34:58.538Z,13
2022-10-11T12:36:59.659Z,12
2022-10-11T12:39:58.540Z,10
2022-10-11T12:42:58.532Z,11
2022-10-11T12:44:58.546Z,12
2022-10-11T12:47:58.543Z,13
2022-10-11T12:51:00.814Z,11
2022-10-11T12:52:58.542Z,14
2022-10-11T12:55:58.544Z,12
2022-10-11T12:57:58.871Z,12
2022-10-11T13:00:58.612Z,12
2022-10-11T13:03:58.582Z,11
2022-10-11T13:07:00.222Z,13
2022-10-11T13:08:58.564Z,10
2022-10-11T13:11:58.525Z,10
2022-10-11T13:13:58.565Z,9
2022-10-11T13:15:58.546Z,11
2022-10-11T13:18:58.534Z,10
2022-10-11T13:20:58.527Z,11
2022-10-11T13:22:58.563Z,10
2022-10-11T13:25:58.517Z,9
2022-10-11T13:27:58.559Z,11
2022-10-11T13:30:58.562Z,12
2022-10-11T13:33:58.544Z,8
2022-10-11T13:35:58.569Z,9
2022-10-11T13:38:58.566Z,16
2022-10-11T13:40:58.576Z,10
2022-10-11T13:42:58.587Z,12
2022-10-11T13:45:58.578Z,11
2022-10-11T13:47:58.575Z,12
2022-10-11T13:50:59.022Z,40
2022-10-11T13:53:58.535Z,8
2022-10-11T13:55:58.592Z,8
2022-10-11T13:57:58.576Z,13
2022-10-11T14:00:58.605Z,16
2022-10-11T14:03:58.568Z,10
2022-10-11T14:05:58.583Z,11
2022-10-11T14:08:58.583Z,12
2022-10-11T14:11:00.333Z,11
2022-10-11T14:13:58.577Z,12
2022-10-11T14:15:58.601Z,13
2022-10-11T14:18:58.598Z,10
2022-10-11T14:21:58.570Z,8
2022-10-11T14:23:58.576Z,14
2022-10-11T14:26:58.558Z,9
2022-10-11T14:28:58.538Z,10
2022-10-11T14:33:58.590Z,10
2022-10-11T14:36:58.564Z,12
2022-10-11T14:38:58.538Z,11
2022-10-11T14:41:58.563Z,10
2022-10-11T14:44:58.553Z,12
2022-10-11T14:46:58.569Z,11
2022-10-11T14:48:58.586Z,12
2022-10-11T14:50:58.582Z,10
2022-10-11T14:53:58.574Z,9
2022-10-11T14:56:58.557Z,9
2022-10-11T14:58:58.573Z,11
2022-10-11T15:00:58.590Z,12
2022-10-11T15:03:58.599Z,9
2022-10-11T15:06:58.577Z,12
2022-10-11T15:09:58.581Z,10
2022-10-11T15:12:58.596Z,10
2022-10-11T15:15:58.588Z,9
2022-10-11T15:17:58.588Z,13
2022-10-11T15:20:58.555Z,12
2022-10-11T15:22:58.568Z,10
2022-10-11T15:24:58.562Z,9
2022-10-11T15:27:58.599Z,10
2022-10-11T15:30:58.606Z,12
2022-10-11T15:32:58.590Z,10
2022-10-11T15:35:58.566Z,9
2022-10-11T15:38:58.587Z,11
2022-10-11T15:40:58.585Z,10
2022-10-11T15:43:58.588Z,11
2022-10-11T15:45:58.581Z,20
2022-10-11T15:47:58.599Z,11
2022-10-11T15:49:58.645Z,15
2022-10-11T15:52:58.597Z,10
2022-10-11T15:54:58.665Z,11
2022-10-11T15:57:58.598Z,14
2022-10-11T15:59:58.647Z,12
2022-10-11T16:02:58.597Z,10
2022-10-11T16:04:58.618Z,9
2022-10-11T16:06:58.598Z,10
2022-10-11T16:09:58.647Z,11
2022-10-11T16:11:58.594Z,12
2022-10-11T16:14:58.619Z,10
2022-10-11T16:17:01.713Z,10
2022-10-11T16:19:58.691Z,13
2022-10-11T16:22:58.600Z,11
2022-10-11T16:25:58.596Z,13
2022-10-11T16:27:58.595Z,10
2022-10-11T16:29:58.621Z,12
2022-10-11T16:32:58.586Z,12
2022-10-11T16:34:58.611Z,14
2022-10-11T16:37:58.611Z,18
2022-10-11T16:40:58.619Z,18
2022-10-11T16:42:58.611Z,21
2022-10-11T16:45:58.621Z,16
2022-10-11T16:47:58.609Z,13
2022-10-11T16:50:58.608Z,14
2022-10-11T16:52:58.626Z,19
2022-10-11T16:54:58.613Z,18
2022-10-11T16:57:58.613Z,17
2022-10-11T16:59:58.626Z,19
2022-10-11T17:02:58.653Z,15
2022-10-11T17:05:58.602Z,15
2022-10-11T17:07:58.613Z,16
2022-10-11T17:10:58.627Z,17
2022-10-11T17:13:58.630Z,14
2022-10-11T17:16:58.597Z,19
2022-10-11T17:18:58.643Z,16
2022-10-11T17:21:58.592Z,19
2022-10-11T17:23:58.638Z,14
2022-10-11T17:26:58.596Z,16
2022-10-11T17:28:58.666Z,13
2022-10-11T17:31:58.633Z,16
2022-10-11T17:34:58.637Z,12
2022-10-11T17:36:58.604Z,17
2022-10-11T17:39:58.634Z,16
2022-10-11T17:41:58.592Z,13
2022-10-11T17:43:58.630Z,15
2022-10-11T17:45:58.680Z,16
2022-10-11T17:48:58.641Z,18
2022-10-11T17:51:58.611Z,18
2022-10-11T17:53:58.609Z,16
2022-10-11T17:55:58.641Z,17
2022-10-11T17:57:58.665Z,21
2022-10-11T18:00:58.633Z,24
2022-10-11T18:02:58.641Z,21
2022-10-11T18:04:58.640Z,15
2022-10-11T18:07:58.624Z,16
2022-10-11T18:09:58.638Z,17
2022-10-11T18:13:00.226Z,18
2022-10-11T18:14:58.656Z,18
2022-10-11T18:17:58.681Z,19
2022-10-11T18:19:58.686Z,16
2022-10-11T18:22:58.639Z,22
2022-10-11T18:24:58.645Z,16
2022-10-11T18:27:58.647Z,20
2022-10-11T18:30:58.631Z,16
2022-10-11T18:33:58.661Z,18
2022-10-11T18:35:58.646Z,15
2022-10-11T18:38:00.845Z,15
2022-10-11T18:39:58.661Z,14
2022-10-11T18:41:58.642Z,15
2022-10-11T18:43:58.653Z,15
2022-10-11T18:46:58.631Z,13
2022-10-11T18:49:58.648Z,20
2022-10-11T18:51:58.717Z,15
2022-10-11T18:54:58.629Z,17
2022-10-11T18:56:58.614Z,15
2022-10-11T18:58:58.693Z,18
2022-10-11T19:01:58.666Z,14
2022-10-11T19:03:58.654Z,18
2022-10-11T19:05:58.661Z,23
2022-10-11T19:08:58.674Z,25
2022-10-11T19:10:58.676Z,24
2022-10-11T19:13:58.619Z,19
2022-10-11T19:16:58.711Z,20
2022-10-11T19:19:58.647Z,21
2022-10-11T19:22:58.672Z,21
2022-10-11T19:24:58.679Z,20
2022-10-11T19:27:58.609Z,20
2022-10-11T19:30:58.673Z,23
2022-10-11T19:33:58.612Z,19
2022-10-11T19:35:58.631Z,23
2022-10-11T19:38:58.620Z,16
2022-10-11T19:40:59.716Z,18
2022-10-11T19:43:58.626Z,17
2022-10-11T19:45:58.640Z,20
2022-10-11T19:47:58.630Z,17
2022-10-11T19:49:58.672Z,22
2022-10-11T19:52:58.698Z,20
2022-10-11T19:55:58.626Z,19
2022-10-11T19:57:58.687Z,20
2022-10-11T20:00:58.671Z,15
2022-10-11T20:02:58.669Z,14
2022-10-11T20:05:14.434Z,15
2022-10-11T20:07:58.644Z,17
2022-10-11T20:10:58.645Z,14
2022-10-11T20:12:58.669Z,12
2022-10-11T20:14:58.666Z,18
2022-10-11T20:17:58.639Z,15
2022-10-11T20:20:58.689Z,12
2022-10-11T20:24:14.278Z,12
2022-10-11T20:26:58.959Z,16
2022-10-11T20:29:58.696Z,13
2022-10-11T20:32:58.679Z,14
2022-10-11T20:35:58.654Z,14
2022-10-11T20:37:58.698Z,14
2022-10-11T20:40:58.669Z,13
2022-10-11T20:43:58.659Z,14
2022-10-11T20:47:03.085Z,12
2022-10-11T20:49:58.678Z,11
2022-10-11T20:51:58.645Z,14
2022-10-11T20:54:58.660Z,15
2022-10-11T20:56:58.649Z,15
2022-10-11T20:59:58.682Z,13
2022-10-11T21:02:58.661Z,14
2022-10-11T21:05:58.699Z,15
2022-10-11T21:08:58.720Z,20
2022-10-11T21:11:58.621Z,17
2022-10-11T21:13:58.666Z,19
2022-10-11T21:15:58.680Z,14
2022-10-11T21:18:58.675Z,20
2022-10-11T21:21:58.655Z,17
2022-10-11T21:23:58.683Z,13
2022-10-11T21:27:00.702Z,16
2022-10-11T21:29:58.662Z,16
2022-10-11T21:31:58.657Z,17
2022-10-11T21:33:58.672Z,19
2022-10-11T21:36:58.674Z,23
2022-10-11T21:38:58.679Z,17
2022-10-11T21:41:58.666Z,18
2022-10-11T21:43:58.727Z,18
2022-10-11T21:47:06.853Z,17
2022-10-11T21:48:58.692Z,16
2022-10-11T21:51:58.654Z,19
2022-10-11T21:54:58.681Z,15
2022-10-11T21:57:58.663Z,17
2022-10-11T22:00:58.756Z,16
2022-10-11T22:03:58.689Z,21
2022-10-11T22:05:58.643Z,16
2022-10-11T22:08:58.677Z,20
2022-10-11T22:10:58.691Z,16
2022-10-11T22:13:58.686Z,19
2022-10-11T22:15:58.661Z,23
2022-10-11T22:17:58.673Z,25
2022-10-11T22:20:58.667Z,22
2022-10-11T22:22:58.698Z,24
2022-10-11T22:24:58.691Z,24
2022-10-11T22:28:58.949Z,20
2022-10-11T22:32:58.776Z,19
2022-10-11T22:35:58.921Z,22
2022-10-11T22:38:58.749Z,24
2022-10-11T22:41:58.723Z,17
2022-10-11T22:44:58.717Z,15
2022-10-11T22:47:58.695Z,16
2022-10-11T22:49:58.746Z,18
2022-10-11T22:51:58.706Z,15
2022-10-11T22:53:58.724Z,16
2022-10-11T22:56:58.706Z,15
2022-10-11T22:59:58.719Z,20
2022-10-11T23:02:58.718Z,18
2022-10-11T23:04:58.772Z,18
2022-10-11T23:07:59.252Z,14
2022-10-11T23:10:58.705Z,16
2022-10-11T23:12:58.744Z,16
2022-10-11T23:15:58.758Z,16
2022-10-11T23:18:58.707Z,20
2022-10-11T23:20:58.742Z,18
2022-10-11T23:23:58.699Z,14
2022-10-11T23:25:58.740Z,16
2022-10-11T23:28:58.706Z,18
2022-10-11T23:31:58.726Z,17
2022-10-11T23:33:58.723Z,19
2022-10-11T23:36:58.721Z,19
2022-10-11T23:39:58.761Z,19
2022-10-11T23:42:58.686Z,17
2022-10-11T23:45:58.827Z,17
2022-10-11T23:48:58.716Z,18
2022-10-11T23:51:58.721Z,20
2022-10-11T23:54:58.737Z,17
2022-10-11T23:57:58.678Z,20
2022-10-11T23:59:58.701Z,16
